createdAt,value
2018-12-10T00:02:02.493Z,80.29
2018-12-10T00:04:35.060Z,81.01
2018-12-10T00:07:06.667Z,81.86
2018-12-10T00:09:36.895Z,82.77
2018-12-10T00:12:06.390Z,81.64
2018-12-10T00:14:36.236Z,82.20
2018-12-10T00:17:06.650Z,82.68
2018-12-10T00:19:36.012Z,82.73
2018-12-10T00:22:05.758Z,83.34
2018-12-10T00:24:36.031Z,82.88
2018-12-10T00:27:06.397Z,82.67
2018-12-10T00:29:35.565Z,81.93
2018-12-10T00:32:06.788Z,82.09
2018-12-10T00:34:36.091Z,82.23
2018-12-10T00:37:06.490Z,81.07
2018-12-10T00:39:36.410Z,81.02
2018-12-10T00:42:05.794Z,81.22
2018-12-10T00:44:35.493Z,81.26
2018-12-10T00:47:04.860Z,80.47
2018-12-10T00:49:34.173Z,80.22
2018-12-10T00:52:03.686Z,81.28
2018-12-10T00:54:33.790Z,80.19
2018-12-10T00:57:03.691Z,80.21
2018-12-10T00:59:33.995Z,80.44
2018-12-10T01:02:05.141Z,80.53
2018-12-10T01:04:35.267Z,80.67
2018-12-10T01:07:05.115Z,81.28
2018-12-10T01:09:34.801Z,81.43
2018-12-10T01:12:04.257Z,81.43
2018-12-10T01:14:34.593Z,81.99
2018-12-10T01:17:04.040Z,82.22
2018-12-10T01:19:33.381Z,82.55
2018-12-10T01:22:02.958Z,82.22
2018-12-10T01:24:32.320Z,82.28
2018-12-10T01:27:02.466Z,82.03
2018-12-10T01:29:32.427Z,82.77
2018-12-10T01:32:01.948Z,83.03
2018-12-10T01:34:32.028Z,82.59
2018-12-10T01:37:02.161Z,82.60
2018-12-10T01:39:31.543Z,82.92
2018-12-10T01:42:01.722Z,82.80
2018-12-10T01:44:31.828Z,83.24
2018-12-10T01:47:01.912Z,82.77
2018-12-10T01:49:31.211Z,82.63
2018-12-10T01:52:00.412Z,83.51
2018-12-10T01:54:30.608Z,83.00
2018-12-10T01:56:59.821Z,83.27
2018-12-10T01:59:29.002Z,83.95
2018-12-10T02:01:58.523Z,83.57
2018-12-10T02:04:28.441Z,83.93
2018-12-10T02:06:57.738Z,83.97
2018-12-10T02:09:27.557Z,84.37
2018-12-10T02:11:57.097Z,84.23
2018-12-10T02:14:26.370Z,84.08
2018-12-10T02:16:55.648Z,83.26
2018-12-10T02:19:25.278Z,83.45
2018-12-10T02:21:54.915Z,83.76
2018-12-10T02:24:24.218Z,83.95
2018-12-10T02:26:53.461Z,84.02
2018-12-10T02:29:23.483Z,83.99
2018-12-10T02:31:53.922Z,84.25
2018-12-10T02:34:24.100Z,83.06
2018-12-10T02:36:53.992Z,82.72
2018-12-10T02:39:23.959Z,82.23
2018-12-10T02:41:53.488Z,82.67
2018-12-10T02:44:22.974Z,83.13
2018-12-10T02:46:52.550Z,82.79
2018-12-10T02:49:22.145Z,82.82
2018-12-10T02:51:52.334Z,82.69
2018-12-10T02:54:21.677Z,82.58
2018-12-10T02:56:51.077Z,81.71
2018-12-10T02:59:20.792Z,81.76
2018-12-10T03:01:50.143Z,81.95
2018-12-10T03:04:21.423Z,81.93
2018-12-10T03:06:50.859Z,81.85
2018-12-10T03:09:20.232Z,81.41
2018-12-10T03:11:49.565Z,81.16
2018-12-10T03:14:19.124Z,80.69
2018-12-10T03:16:49.764Z,80.62
2018-12-10T03:19:19.614Z,80.35
2018-12-10T03:21:49.925Z,79.54
2018-12-10T03:24:19.090Z,79.73
2018-12-10T03:26:49.406Z,79.73
2018-12-10T03:29:18.846Z,79.37
2018-12-10T03:31:48.278Z,80.21
2018-12-10T03:34:17.872Z,80.48
2018-12-10T03:36:48.139Z,79.98
2018-12-10T03:39:17.520Z,79.65
2018-12-10T03:41:47.448Z,78.26
2018-12-10T03:44:16.762Z,79.08
2018-12-10T03:46:47.298Z,78.73
2018-12-10T03:49:17.359Z,79.35
2018-12-10T03:51:46.703Z,79.11
2018-12-10T03:54:16.158Z,79.70
2018-12-10T03:56:46.105Z,78.86
2018-12-10T03:59:15.587Z,79.05
2018-12-10T04:01:44.898Z,78.90
2018-12-10T04:04:14.403Z,79.05
2018-12-10T04:06:43.809Z,79.60
2018-12-10T04:09:13.100Z,80.18
2018-12-10T04:11:44.061Z,79.47
2018-12-10T04:14:13.398Z,79.38
2018-12-10T04:16:43.559Z,78.99
2018-12-10T04:19:12.774Z,79.62
2018-12-10T04:21:42.039Z,79.53
2018-12-10T04:24:11.273Z,79.77
2018-12-10T04:26:40.663Z,79.89
2018-12-10T04:29:10.090Z,79.65
2018-12-10T04:31:39.715Z,79.46
2018-12-10T04:34:09.953Z,79.94
2018-12-10T04:36:39.486Z,79.39
2018-12-10T04:39:09.357Z,79.91
2018-12-10T04:41:38.784Z,79.24
2018-12-10T04:44:08.634Z,78.82
2018-12-10T04:46:38.193Z,81.40
2018-12-10T04:49:07.615Z,82.76
2018-12-10T04:51:37.203Z,82.89
2018-12-10T04:54:06.711Z,83.66
2018-12-10T04:56:36.116Z,84.03
2018-12-10T04:59:05.683Z,84.99
2018-12-10T05:01:35.375Z,85.29
2018-12-10T05:04:04.925Z,85.87
2018-12-10T05:06:34.420Z,86.40
2018-12-10T05:09:06.216Z,86.54
2018-12-10T05:11:36.774Z,85.69
2018-12-10T05:14:06.268Z,86.51
2018-12-10T05:16:36.202Z,86.74
2018-12-10T05:19:06.421Z,86.42
2018-12-10T05:21:35.934Z,86.53
2018-12-10T05:24:05.400Z,86.50
2018-12-10T05:26:36.385Z,85.87
2018-12-10T05:29:05.820Z,86.64
2018-12-10T05:31:35.944Z,86.41
2018-12-10T05:34:05.323Z,85.50
2018-12-10T05:36:35.466Z,85.75
2018-12-10T05:39:06.414Z,83.50
2018-12-10T05:41:36.771Z,82.73
2018-12-10T05:44:06.480Z,82.28
2018-12-10T05:46:37.014Z,83.60
2018-12-10T05:49:06.539Z,85.57
2018-12-10T05:51:35.928Z,87.63
2018-12-10T05:54:05.618Z,88.54
2018-12-10T05:56:35.058Z,89.78
2018-12-10T05:59:04.630Z,89.54
2018-12-10T06:01:35.139Z,90.25
2018-12-10T06:04:04.714Z,90.15
2018-12-10T06:06:34.440Z,91.23
2018-12-10T06:09:05.380Z,90.89
2018-12-10T06:11:34.625Z,90.20
2018-12-10T06:14:04.238Z,91.31
2018-12-10T06:16:34.444Z,91.10
2018-12-10T06:19:03.959Z,91.23
2018-12-10T06:21:33.794Z,92.10
2018-12-10T06:24:03.299Z,92.32
2018-12-10T06:26:33.201Z,91.52
2018-12-10T06:29:03.483Z,91.26
2018-12-10T06:31:32.770Z,91.88
2018-12-10T06:34:02.955Z,92.07
2018-12-10T06:36:33.091Z,91.45
2018-12-10T06:39:02.421Z,91.95
2018-12-10T06:41:33.550Z,91.88
2018-12-10T06:44:03.713Z,92.27
2018-12-10T06:46:33.035Z,92.43
2018-12-10T06:49:03.278Z,92.60
2018-12-10T06:51:32.862Z,92.70
2018-12-10T06:54:02.428Z,93.10
2018-12-10T06:56:31.699Z,93.40
2018-12-10T06:59:01.088Z,92.67
2018-12-10T07:01:31.159Z,92.97
2018-12-10T07:04:01.391Z,93.11
2018-12-10T07:06:31.595Z,92.43
2018-12-10T07:09:00.820Z,92.88
2018-12-10T07:11:31.878Z,93.61
2018-12-10T07:14:01.225Z,93.70
2018-12-10T07:16:30.510Z,92.95
2018-12-10T07:18:59.947Z,93.52
2018-12-10T07:21:29.913Z,93.34
2018-12-10T07:23:59.281Z,93.68
2018-12-10T07:26:29.173Z,93.71
2018-12-10T07:28:58.523Z,93.86
2018-12-10T07:31:27.843Z,93.88
2018-12-10T07:33:57.509Z,93.07
2018-12-10T07:36:27.115Z,93.73
2018-12-10T07:38:57.460Z,94.21
2018-12-10T07:41:27.001Z,94.11
2018-12-10T07:43:56.686Z,94.44
2018-12-10T07:46:26.945Z,94.00
2018-12-10T07:48:57.155Z,94.37
2018-12-10T07:51:26.444Z,94.17
2018-12-10T07:53:56.525Z,94.70
2018-12-10T07:56:29.095Z,95.40
2018-12-10T07:58:58.756Z,95.55
2018-12-10T08:01:28.120Z,95.18
2018-12-10T08:03:57.578Z,95.15
2018-12-10T08:06:27.108Z,95.79
2018-12-10T08:08:56.745Z,96.54
2018-12-10T08:11:26.075Z,96.51
2018-12-10T08:13:55.324Z,96.44
2018-12-10T08:16:25.544Z,97.48
2018-12-10T08:18:55.493Z,97.16
2018-12-10T08:21:25.688Z,97.09
2018-12-10T08:23:55.064Z,97.04
2018-12-10T08:26:25.223Z,96.85
2018-12-10T08:29:03.839Z,96.68
2018-12-10T08:31:27.824Z,96.21
2018-12-10T08:33:57.233Z,96.21
2018-12-10T08:36:26.653Z,95.98
2018-12-10T08:38:56.233Z,96.08
2018-12-10T08:41:26.385Z,95.44
2018-12-10T08:43:56.590Z,95.20
2018-12-10T08:46:25.984Z,94.58
2018-12-10T08:48:55.406Z,92.04
2018-12-10T08:51:25.153Z,89.10
2018-12-10T08:53:54.616Z,86.59
2018-12-10T08:56:24.159Z,85.51
2018-12-10T08:58:53.499Z,86.55
2018-12-10T09:01:23.050Z,85.14
2018-12-10T09:03:52.448Z,84.45
2018-12-10T09:06:22.124Z,84.62
2018-12-10T09:08:51.799Z,84.50
2018-12-10T09:11:21.052Z,82.55
2018-12-10T09:13:50.329Z,81.08
2018-12-10T09:16:19.778Z,80.87
2018-12-10T09:18:49.158Z,79.44
2018-12-10T09:21:18.681Z,77.01
2018-12-10T09:23:48.018Z,70.25
2018-12-10T09:26:18.227Z,66.81
2018-12-10T09:28:48.413Z,71.03
2018-12-10T09:31:17.895Z,71.88
2018-12-10T09:33:47.907Z,76.12
2018-12-10T09:36:17.210Z,77.33
2018-12-10T09:38:46.478Z,78.47
2018-12-10T09:41:16.094Z,79.54
2018-12-10T09:43:46.692Z,78.91
2018-12-10T09:46:16.189Z,78.94
2018-12-10T09:48:45.675Z,78.58
2018-12-10T09:51:15.362Z,79.59
2018-12-10T09:53:45.559Z,78.08
2018-12-10T09:56:14.898Z,77.68
2018-12-10T09:58:44.118Z,77.51
2018-12-10T10:01:14.126Z,76.04
2018-12-10T10:03:43.705Z,75.01
2018-12-10T10:06:13.525Z,76.08
2018-12-10T10:08:42.829Z,75.32
2018-12-10T10:11:12.285Z,74.45
2018-12-10T10:13:41.564Z,74.41
2018-12-10T10:16:11.112Z,73.89
2018-12-10T10:18:40.659Z,73.01
2018-12-10T10:21:11.390Z,70.85
2018-12-10T10:23:40.991Z,68.98
2018-12-10T10:26:10.314Z,66.87
2018-12-10T10:28:39.716Z,67.60
2018-12-10T10:31:09.265Z,67.72
2018-12-10T10:33:39.163Z,65.81
2018-12-10T10:36:09.258Z,66.31
2018-12-10T10:38:38.685Z,66.33
2018-12-10T10:41:08.749Z,66.34
2018-12-10T10:43:39.186Z,67.17
2018-12-10T10:46:08.597Z,67.95
2018-12-10T10:48:38.202Z,68.73
2018-12-10T10:51:07.569Z,69.59
2018-12-10T10:53:36.984Z,69.69
2018-12-10T10:56:06.760Z,71.19
2018-12-10T10:58:36.279Z,70.14
2018-12-10T11:01:11.049Z,70.25
2018-12-10T11:03:41.415Z,70.26
2018-12-10T11:06:11.638Z,70.36
2018-12-10T11:08:41.037Z,71.04
2018-12-10T11:11:10.328Z,70.87
2018-12-10T11:13:40.260Z,70.27
2018-12-10T11:16:10.959Z,69.97
2018-12-10T11:18:40.520Z,69.39
2018-12-10T11:21:10.655Z,69.32
2018-12-10T11:23:40.184Z,69.19
2018-12-10T11:26:09.635Z,68.56
2018-12-10T11:28:38.919Z,68.72
2018-12-10T11:31:09.556Z,68.55
2018-12-10T11:33:38.898Z,68.35
2018-12-10T11:36:08.422Z,68.59
2018-12-10T11:38:37.909Z,69.29
2018-12-10T11:41:08.229Z,69.87
2018-12-10T11:43:37.739Z,68.68
2018-12-10T11:46:07.197Z,68.49
2018-12-10T11:48:36.775Z,67.87
2018-12-10T11:51:07.754Z,69.05
2018-12-10T11:53:37.021Z,67.80
2018-12-10T11:56:06.949Z,67.17
2018-12-10T11:58:36.939Z,66.64
2018-12-10T12:01:06.436Z,68.28
2018-12-10T12:03:36.466Z,68.57
2018-12-10T12:06:08.630Z,67.75
2018-12-10T12:08:38.031Z,67.53
2018-12-10T12:11:07.875Z,67.44
2018-12-10T12:13:37.306Z,66.98
2018-12-10T12:16:08.355Z,66.52
2018-12-10T12:18:38.539Z,64.08
2018-12-10T12:21:08.771Z,62.98
2018-12-10T12:23:38.106Z,61.36
2018-12-10T12:26:07.904Z,60.44
2018-12-10T12:28:37.391Z,59.35
2018-12-10T12:31:07.568Z,59.65
2018-12-10T12:33:36.839Z,57.78
2018-12-10T12:36:06.177Z,57.01
2018-12-10T12:38:35.886Z,56.97
2018-12-10T12:41:05.635Z,55.21
2018-12-10T12:43:35.131Z,55.43
2018-12-10T12:46:04.811Z,55.14
2018-12-10T12:48:34.070Z,54.22
2018-12-10T12:51:04.315Z,52.41
2018-12-10T12:53:34.444Z,52.41
2018-12-10T12:56:04.795Z,50.78
2018-12-10T12:58:34.835Z,50.37
2018-12-10T13:01:04.135Z,52.05
2018-12-10T13:03:33.611Z,54.82
2018-12-10T13:06:06.958Z,54.37
2018-12-10T13:08:35.618Z,54.93
2018-12-10T13:11:05.065Z,57.13
2018-12-10T13:13:34.558Z,55.49
2018-12-10T13:16:04.076Z,55.74
2018-12-10T13:18:33.484Z,54.17
2018-12-10T13:21:03.041Z,54.09
2018-12-10T13:23:32.539Z,52.72
2018-12-10T13:26:02.183Z,51.19
2018-12-10T13:28:32.293Z,52.76
2018-12-10T13:31:01.751Z,53.30
2018-12-10T13:33:31.650Z,52.20
2018-12-10T13:36:01.137Z,54.42
2018-12-10T13:38:30.715Z,56.48
2018-12-10T13:41:01.276Z,56.51
2018-12-10T13:43:31.532Z,57.09
2018-12-10T13:46:01.798Z,56.91
2018-12-10T13:48:31.307Z,57.92
2018-12-10T13:55:50.422Z,59.42
2018-12-10T13:58:20.076Z,60.24
2018-12-10T14:00:51.029Z,59.59
2018-12-10T14:03:22.052Z,59.52
2018-12-10T14:05:51.591Z,59.90
2018-12-10T14:08:20.949Z,59.80
2018-12-10T14:10:50.511Z,62.24
2018-12-10T14:13:20.239Z,65.64
2018-12-10T14:15:50.550Z,72.80
2018-12-10T14:18:19.832Z,75.19
2018-12-10T14:20:49.470Z,74.27
2018-12-10T14:23:19.059Z,75.10
2018-12-10T14:25:48.389Z,75.55
2018-12-10T14:28:17.826Z,76.10
2018-12-10T14:30:47.929Z,78.54
2018-12-10T14:33:17.545Z,77.24
2018-12-10T14:35:47.204Z,77.04
2018-12-10T14:38:16.636Z,77.83
2018-12-10T14:40:46.555Z,78.35
2018-12-10T14:43:16.735Z,78.55
2018-12-10T14:45:46.095Z,79.46
2018-12-10T14:48:15.338Z,79.45
2018-12-10T14:50:45.067Z,80.06
2018-12-10T14:53:14.796Z,79.87
2018-12-10T14:55:44.913Z,80.67
2018-12-10T14:58:14.182Z,81.71
2018-12-10T15:00:43.793Z,81.68
2018-12-10T15:03:13.476Z,82.33
2018-12-10T15:05:43.746Z,82.71
2018-12-10T15:08:13.862Z,83.07
2018-12-10T15:10:43.967Z,82.83
2018-12-10T15:13:14.230Z,83.50
2018-12-10T15:15:43.622Z,82.74
2018-12-10T15:18:13.291Z,83.97
2018-12-10T15:20:42.821Z,83.93
2018-12-10T15:23:13.156Z,84.58
2018-12-10T15:25:42.675Z,84.73
2018-12-10T15:28:12.435Z,85.00
2018-12-10T15:30:42.806Z,84.26
2018-12-10T15:33:12.927Z,85.20
2018-12-10T15:35:42.363Z,85.94
2018-12-10T15:38:12.294Z,85.17
2018-12-10T15:40:41.668Z,85.45
2018-12-10T15:43:11.202Z,85.04
2018-12-10T15:45:40.577Z,85.71
2018-12-10T15:48:10.172Z,85.83
2018-12-10T15:50:39.708Z,86.30
2018-12-10T15:53:09.182Z,86.78
2018-12-10T15:55:38.848Z,87.25
2018-12-10T15:58:08.322Z,87.50
2018-12-10T16:00:38.436Z,88.34
2018-12-10T16:03:08.431Z,88.43
2018-12-10T16:05:38.727Z,88.12
2018-12-10T16:08:08.147Z,88.37
2018-12-10T16:10:37.926Z,88.86
2018-12-10T16:13:07.278Z,88.78
2018-12-10T16:15:37.237Z,88.08
2018-12-10T16:18:06.802Z,87.86
2018-12-10T16:20:36.321Z,88.92
2018-12-10T16:23:05.741Z,88.38
2018-12-10T16:25:35.355Z,88.20
2018-12-10T16:28:05.418Z,86.72
2018-12-10T16:30:35.145Z,86.72
2018-12-10T16:33:04.625Z,86.95
2018-12-10T16:35:34.416Z,87.02
2018-12-10T16:38:04.341Z,86.50
2018-12-10T16:40:34.929Z,86.41
2018-12-10T16:43:04.363Z,87.66
2018-12-10T16:45:33.844Z,87.76
2018-12-10T16:48:03.363Z,88.13
2018-12-10T16:50:32.807Z,89.29
2018-12-10T16:53:02.703Z,87.59
2018-12-10T16:55:32.824Z,86.24
2018-12-10T16:58:02.257Z,86.28
2018-12-10T17:00:33.249Z,86.34
2018-12-10T17:03:04.035Z,86.38
2018-12-10T17:05:33.664Z,86.10
2018-12-10T17:08:03.085Z,85.93
2018-12-10T17:10:33.007Z,85.92
2018-12-10T17:13:02.498Z,86.94
2018-12-10T17:15:33.509Z,87.76
2018-12-10T17:18:03.647Z,87.28
2018-12-10T17:20:33.004Z,86.47
2018-12-10T17:23:02.665Z,87.69
2018-12-10T17:25:33.162Z,87.25
2018-12-10T17:28:02.793Z,86.34
2018-12-10T17:30:32.455Z,85.72
2018-12-10T17:33:02.133Z,85.55
2018-12-10T17:35:32.240Z,85.90
2018-12-10T17:38:02.394Z,86.44
2018-12-10T17:40:33.009Z,85.05
2018-12-10T17:43:02.754Z,85.15
2018-12-10T17:45:32.143Z,85.74
2018-12-10T17:48:02.202Z,84.43
2018-12-10T17:50:32.435Z,84.74
2018-12-10T17:53:02.800Z,84.69
2018-12-10T17:55:32.585Z,85.38
2018-12-10T17:58:02.173Z,84.91
2018-12-10T18:00:32.233Z,86.26
2018-12-10T18:03:01.747Z,85.66
2018-12-10T18:05:31.548Z,85.15
2018-12-10T18:08:01.043Z,85.11
2018-12-10T18:10:30.514Z,85.81
2018-12-10T18:13:01.233Z,86.12
2018-12-10T18:15:31.019Z,85.95
2018-12-10T18:18:00.613Z,86.26
2018-12-10T18:20:30.830Z,86.06
2018-12-10T18:23:01.108Z,85.98
2018-12-10T18:25:30.729Z,86.42
2018-12-10T18:28:01.619Z,86.24
2018-12-10T18:30:31.920Z,86.24
2018-12-10T18:33:02.923Z,85.92
2018-12-10T18:35:32.363Z,85.45
2018-12-10T18:38:02.454Z,85.05
2018-12-10T18:40:32.290Z,85.65
2018-12-10T18:43:01.943Z,85.44
2018-12-10T18:45:31.806Z,85.10
2018-12-10T18:48:01.531Z,84.42
2018-12-10T18:50:31.371Z,84.42
2018-12-10T18:53:01.568Z,84.97
2018-12-10T18:55:31.154Z,84.83
2018-12-10T18:58:00.865Z,84.57
2018-12-10T19:00:31.193Z,84.24
2018-12-10T19:03:01.329Z,83.36
2018-12-10T19:05:30.759Z,84.46
2018-12-10T19:08:00.563Z,84.03
2018-12-10T19:10:30.081Z,84.46
2018-12-10T19:13:00.829Z,83.88
2018-12-10T19:15:31.413Z,84.77
2018-12-10T19:18:01.387Z,84.55
2018-12-10T19:20:31.800Z,85.23
2018-12-10T19:23:01.894Z,85.17
2018-12-10T19:25:31.233Z,86.12
2018-12-10T19:28:02.258Z,85.19
2018-12-10T19:30:31.821Z,85.38
2018-12-10T19:33:02.870Z,86.34
2018-12-10T19:35:32.484Z,89.34
2018-12-10T19:38:02.109Z,91.62
2018-12-10T19:40:32.209Z,93.44
2018-12-10T19:43:02.448Z,94.71
2018-12-10T19:45:31.986Z,95.80
2018-12-10T19:48:01.873Z,96.60
2018-12-10T19:50:31.364Z,97.24
2018-12-10T19:53:02.450Z,97.79
2018-12-10T19:55:32.414Z,98.61
2018-12-10T19:58:02.875Z,98.48
2018-12-10T20:00:33.090Z,98.32
2018-12-10T20:03:05.172Z,97.71
2018-12-10T20:05:51.796Z,98.09
2018-12-10T20:08:22.030Z,97.52
2018-12-10T20:10:51.779Z,97.00
2018-12-10T20:13:21.338Z,96.42
2018-12-10T20:15:51.658Z,95.71
2018-12-10T20:18:21.184Z,95.87
2018-12-10T20:20:50.999Z,95.84
2018-12-10T20:23:20.339Z,95.74
2018-12-10T20:25:51.306Z,96.18
2018-12-10T20:28:21.834Z,96.37
2018-12-10T20:30:52.028Z,96.50
2018-12-10T20:33:21.955Z,97.12
2018-12-10T20:35:52.213Z,96.23
2018-12-10T20:38:23.046Z,95.66
2018-12-10T20:40:54.143Z,95.81
2018-12-10T20:43:23.823Z,96.06
2018-12-10T20:45:54.223Z,95.83
2018-12-10T20:48:26.183Z,96.46
2018-12-10T20:50:56.701Z,96.79
2018-12-10T20:53:26.647Z,96.97
2018-12-10T20:55:56.663Z,97.26
2018-12-10T20:58:26.929Z,97.60
2018-12-10T21:00:57.073Z,98.09
2018-12-10T21:03:26.843Z,98.74
2018-12-10T21:06:01.701Z,98.58
2018-12-10T21:08:31.675Z,98.16
2018-12-10T21:11:02.026Z,98.41
2018-12-10T21:13:31.655Z,98.71
2018-12-10T21:16:01.288Z,98.90
2018-12-10T21:18:31.946Z,98.81
2018-12-10T21:21:01.537Z,99.17
2018-12-10T21:23:31.815Z,99.88
2018-12-10T21:26:02.011Z,99.60
2018-12-10T21:28:32.588Z,99.55
2018-12-10T21:31:02.212Z,99.34
2018-12-10T21:33:32.290Z,99.40
2018-12-10T21:36:01.800Z,99.92
2018-12-10T21:38:31.378Z,99.71
2018-12-10T21:41:01.373Z,100.00
2018-12-10T21:43:31.062Z,100.00
2018-12-10T21:46:00.753Z,100.00
2018-12-10T21:48:30.945Z,100.00
2018-12-10T21:51:00.456Z,100.00
2018-12-10T21:53:29.923Z,100.00
2018-12-10T21:55:59.520Z,100.00
2018-12-10T21:58:29.853Z,100.00
2018-12-10T22:00:59.865Z,100.00
2018-12-10T22:03:30.065Z,100.00
2018-12-10T22:05:59.616Z,100.00
2018-12-10T22:08:30.466Z,100.00
2018-12-10T22:10:59.820Z,100.00
2018-12-10T22:13:29.623Z,100.00
2018-12-10T22:15:59.110Z,100.00
2018-12-10T22:18:29.454Z,100.00
2018-12-10T22:20:58.894Z,100.00
2018-12-10T22:23:28.855Z,100.00
2018-12-10T22:25:58.123Z,100.00
2018-12-10T22:28:28.780Z,100.00
2018-12-10T22:30:58.414Z,100.00
2018-12-10T22:33:27.750Z,99.80
2018-12-10T22:35:57.436Z,99.69
2018-12-10T22:38:27.033Z,99.65
2018-12-10T22:40:56.560Z,100.00
2018-12-10T22:43:26.018Z,100.00
2018-12-10T22:45:55.638Z,100.00
2018-12-10T22:48:25.051Z,99.92
2018-12-10T22:50:55.075Z,100.00
2018-12-10T22:53:24.499Z,100.00
2018-12-10T22:55:54.099Z,100.00
2018-12-10T22:58:23.711Z,100.00
2018-12-10T23:00:53.104Z,99.82
2018-12-10T23:03:24.080Z,99.32
2018-12-10T23:05:53.477Z,99.33
2018-12-10T23:08:23.695Z,99.67
2018-12-10T23:10:53.364Z,99.40
2018-12-10T23:13:22.864Z,99.30
2018-12-10T23:15:52.114Z,98.90
2018-12-10T23:18:23.393Z,98.71
2018-12-10T23:20:52.746Z,98.45
2018-12-10T23:23:22.709Z,99.37
2018-12-10T23:25:52.851Z,98.46
2018-12-10T23:28:22.220Z,98.36
2018-12-10T23:30:51.569Z,99.34
2018-12-10T23:33:20.988Z,99.49
2018-12-10T23:35:50.483Z,99.15
2018-12-10T23:38:19.995Z,99.32
2018-12-10T23:40:50.176Z,99.08
2018-12-10T23:43:24.608Z,98.67
2018-12-10T23:45:55.516Z,98.40
2018-12-10T23:48:24.894Z,98.40
2018-12-10T23:50:54.819Z,98.77
2018-12-10T23:53:24.219Z,98.63
2018-12-10T23:55:53.580Z,98.94
2018-12-10T23:58:23.511Z,99.01
